sensor_id;sensor_type;location;lat;lon;timestamp;temperature;humidity
63317;DHT22;49822;41.468;13.560;2022-08-03T00:01:42;21.50;61.40
63317;DHT22;49822;41.468;13.560;2022-08-03T00:04:10;21.70;60.90
63317;DHT22;49822;41.468;13.560;2022-08-03T00:06:39;21.60;60.60
63317;DHT22;49822;41.468;13.560;2022-08-03T00:09:07;21.60;60.70
63317;DHT22;49822;41.468;13.560;2022-08-03T00:11:36;21.70;60.10
63317;DHT22;49822;41.468;13.560;2022-08-03T00:14:07;21.70;60.70
63317;DHT22;49822;41.468;13.560;2022-08-03T00:16:35;21.80;60.10
63317;DHT22;49822;41.468;13.560;2022-08-03T00:19:02;21.90;59.40
63317;DHT22;49822;41.468;13.560;2022-08-03T00:21:31;21.90;59.40
63317;DHT22;49822;41.468;13.560;2022-08-03T00:23:59;21.90;59.70
63317;DHT22;49822;41.468;13.560;2022-08-03T00:26:26;21.80;59.60
63317;DHT22;49822;41.468;13.560;2022-08-03T00:28:54;21.80;59.60
63317;DHT22;49822;41.468;13.560;2022-08-03T00:31:22;21.50;60.20
63317;DHT22;49822;41.468;13.560;2022-08-03T00:34:09;21.30;60.50
63317;DHT22;49822;41.468;13.560;2022-08-03T00:36:38;21.40;60.40
63317;DHT22;49822;41.468;13.560;2022-08-03T00:39:05;21.50;60.00
63317;DHT22;49822;41.468;13.560;2022-08-03T00:41:33;21.70;59.10
63317;DHT22;49822;41.468;13.560;2022-08-03T00:44:01;21.80;59.00
63317;DHT22;49822;41.468;13.560;2022-08-03T00:46:29;21.90;59.20
63317;DHT22;49822;41.468;13.560;2022-08-03T00:48:56;21.90;59.20
63317;DHT22;49822;41.468;13.560;2022-08-03T00:51:24;21.70;59.40
63317;DHT22;49822;41.468;13.560;2022-08-03T00:53:51;21.30;60.20
63317;DHT22;49822;41.468;13.560;2022-08-03T00:56:19;21.30;60.00
63317;DHT22;49822;41.468;13.560;2022-08-03T00:58:46;21.40;59.70
63317;DHT22;49822;41.468;13.560;2022-08-03T01:01:14;21.50;59.70
63317;DHT22;49822;41.468;13.560;2022-08-03T01:03:48;21.70;59.20
63317;DHT22;49822;41.468;13.560;2022-08-03T01:06:24;21.40;60.30
63317;DHT22;49822;41.468;13.560;2022-08-03T01:09:02;20.80;61.70
63317;DHT22;49822;41.468;13.560;2022-08-03T01:11:39;20.60;61.90
63317;DHT22;49822;41.468;13.560;2022-08-03T01:14:38;20.80;61.70
63317;DHT22;49822;41.468;13.560;2022-08-03T01:17:18;21.10;61.00
63317;DHT22;49822;41.468;13.560;2022-08-03T01:20:04;21.40;60.70
63317;DHT22;49822;41.468;13.560;2022-08-03T01:22:59;21.50;60.30
63317;DHT22;49822;41.468;13.560;2022-08-03T01:28:51;21.40;60.60
63317;DHT22;49822;41.468;13.560;2022-08-03T01:31:26;21.30;60.50
63317;DHT22;49822;41.468;13.560;2022-08-03T01:34:02;21.30;60.60
63317;DHT22;49822;41.468;13.560;2022-08-03T01:36:38;21.30;60.40
63317;DHT22;49822;41.468;13.560;2022-08-03T01:39:07;21.10;60.80
63317;DHT22;49822;41.468;13.560;2022-08-03T01:41:46;21.10;61.00
63317;DHT22;49822;41.468;13.560;2022-08-03T01:44:15;20.70;61.90
63317;DHT22;49822;41.468;13.560;2022-08-03T01:46:59;20.60;62.30
63317;DHT22;49822;41.468;13.560;2022-08-03T01:49:29;20.60;62.10
63317;DHT22;49822;41.468;13.560;2022-08-03T01:51:59;20.70;61.70
63317;DHT22;49822;41.468;13.560;2022-08-03T01:54:43;20.90;61.60
63317;DHT22;49822;41.468;13.560;2022-08-03T01:57:12;21.00;61.20
63317;DHT22;49822;41.468;13.560;2022-08-03T01:59:41;21.10;61.20
63317;DHT22;49822;41.468;13.560;2022-08-03T02:02:12;21.10;61.20
63317;DHT22;49822;41.468;13.560;2022-08-03T02:05:00;21.20;60.90
63317;DHT22;49822;41.468;13.560;2022-08-03T02:07:31;21.10;61.20
63317;DHT22;49822;41.468;13.560;2022-08-03T02:10:00;20.80;61.90
63317;DHT22;49822;41.468;13.560;2022-08-03T02:12:30;20.80;62.20
63317;DHT22;49822;41.468;13.560;2022-08-03T02:14:59;21.00;61.80
63317;DHT22;49822;41.468;13.560;2022-08-03T02:17:29;21.10;60.90
63317;DHT22;49822;41.468;13.560;2022-08-03T02:20:07;21.00;61.30
63317;DHT22;49822;41.468;13.560;2022-08-03T02:22:41;21.00;61.50
63317;DHT22;49822;41.468;13.560;2022-08-03T02:25:22;21.10;62.10
63317;DHT22;49822;41.468;13.560;2022-08-03T02:27:53;21.30;61.50
63317;DHT22;49822;41.468;13.560;2022-08-03T02:30:28;21.10;61.00
63317;DHT22;49822;41.468;13.560;2022-08-03T02:32:58;21.10;62.20
63317;DHT22;49822;41.468;13.560;2022-08-03T02:35:28;21.20;62.30
63317;DHT22;49822;41.468;13.560;2022-08-03T02:38:00;21.30;61.90
63317;DHT22;49822;41.468;13.560;2022-08-03T02:40:30;21.10;61.60
63317;DHT22;49822;41.468;13.560;2022-08-03T02:43:04;20.70;63.30
63317;DHT22;49822;41.468;13.560;2022-08-03T02:45:36;20.60;63.80
63317;DHT22;49822;41.468;13.560;2022-08-03T02:48:25;20.70;64.00
63317;DHT22;49822;41.468;13.560;2022-08-03T02:50:57;20.80;63.30
63317;DHT22;49822;41.468;13.560;2022-08-03T02:53:26;20.80;62.50
63317;DHT22;49822;41.468;13.560;2022-08-03T02:55:56;20.80;62.60
63317;DHT22;49822;41.468;13.560;2022-08-03T02:58:25;20.80;62.80
63317;DHT22;49822;41.468;13.560;2022-08-03T03:00:53;20.50;64.90
63317;DHT22;49822;41.468;13.560;2022-08-03T03:03:22;20.30;64.20
63317;DHT22;49822;41.468;13.560;2022-08-03T03:05:53;20.30;64.20
63317;DHT22;49822;41.468;13.560;2022-08-03T03:08:24;20.40;64.40
63317;DHT22;49822;41.468;13.560;2022-08-03T03:10:58;20.60;63.60
63317;DHT22;49822;41.468;13.560;2022-08-03T03:13:28;20.90;62.90
63317;DHT22;49822;41.468;13.560;2022-08-03T03:15:59;21.10;62.40
63317;DHT22;49822;41.468;13.560;2022-08-03T03:18:28;21.30;62.40
63317;DHT22;49822;41.468;13.560;2022-08-03T03:20:58;21.30;61.70
63317;DHT22;49822;41.468;13.560;2022-08-03T03:23:27;21.40;61.30
63317;DHT22;49822;41.468;13.560;2022-08-03T03:25:55;21.40;61.40
63317;DHT22;49822;41.468;13.560;2022-08-03T03:28:25;21.50;61.50
63317;DHT22;49822;41.468;13.560;2022-08-03T03:30:54;21.50;61.40
63317;DHT22;49822;41.468;13.560;2022-08-03T03:33:22;21.60;62.00
63317;DHT22;49822;41.468;13.560;2022-08-03T03:35:50;21.60;63.00
63317;DHT22;49822;41.468;13.560;2022-08-03T03:38:18;21.60;62.30
63317;DHT22;49822;41.468;13.560;2022-08-03T03:40:48;21.70;62.20
63317;DHT22;49822;41.468;13.560;2022-08-03T03:43:16;21.70;61.60
63317;DHT22;49822;41.468;13.560;2022-08-03T03:45:45;21.70;63.20
63317;DHT22;49822;41.468;13.560;2022-08-03T03:48:13;21.50;63.30
63317;DHT22;49822;41.468;13.560;2022-08-03T03:50:42;21.20;63.10
63317;DHT22;49822;41.468;13.560;2022-08-03T03:53:11;21.00;63.70
63317;DHT22;49822;41.468;13.560;2022-08-03T03:55:39;21.00;63.70
63317;DHT22;49822;41.468;13.560;2022-08-03T03:58:27;21.10;63.70
63317;DHT22;49822;41.468;13.560;2022-08-03T04:00:54;21.10;63.10
63317;DHT22;49822;41.468;13.560;2022-08-03T04:03:22;21.10;62.70
63317;DHT22;49822;41.468;13.560;2022-08-03T04:05:50;21.30;62.70
63317;DHT22;49822;41.468;13.560;2022-08-03T04:08:36;21.20;63.00
63317;DHT22;49822;41.468;13.560;2022-08-03T04:11:29;21.10;63.50
63317;DHT22;49822;41.468;13.560;2022-08-03T04:16:32;21.10;63.50
63317;DHT22;49822;41.468;13.560;2022-08-03T04:19:04;20.60;64.80
63317;DHT22;49822;41.468;13.560;2022-08-03T04:21:37;20.10;66.40
63317;DHT22;49822;41.468;13.560;2022-08-03T04:24:08;19.90;67.30
63317;DHT22;49822;41.468;13.560;2022-08-03T04:26:39;19.90;67.40
63317;DHT22;49822;41.468;13.560;2022-08-03T04:29:09;20.00;66.50
63317;DHT22;49822;41.468;13.560;2022-08-03T04:31:38;20.10;66.50
63317;DHT22;49822;41.468;13.560;2022-08-03T04:34:06;20.10;66.10
63317;DHT22;49822;41.468;13.560;2022-08-03T04:36:39;20.50;65.60
63317;DHT22;49822;41.468;13.560;2022-08-03T04:39:15;20.80;64.20
63317;DHT22;49822;41.468;13.560;2022-08-03T04:41:44;21.10;64.90
63317;DHT22;49822;41.468;13.560;2022-08-03T04:44:40;21.40;64.40
63317;DHT22;49822;41.468;13.560;2022-08-03T04:47:08;21.70;62.60
63317;DHT22;49822;41.468;13.560;2022-08-03T04:49:36;21.70;62.00
63317;DHT22;49822;41.468;13.560;2022-08-03T04:52:06;21.70;62.20
63317;DHT22;49822;41.468;13.560;2022-08-03T04:54:44;21.80;63.20
63317;DHT22;49822;41.468;13.560;2022-08-03T04:57:16;21.90;63.20
63317;DHT22;49822;41.468;13.560;2022-08-03T04:59:52;22.00;63.40
63317;DHT22;49822;41.468;13.560;2022-08-03T05:02:29;22.10;62.90
63317;DHT22;49822;41.468;13.560;2022-08-03T05:04:57;22.20;62.50
63317;DHT22;49822;41.468;13.560;2022-08-03T05:07:25;22.30;62.20
63317;DHT22;49822;41.468;13.560;2022-08-03T05:10:08;22.40;62.10
63317;DHT22;49822;41.468;13.560;2022-08-03T05:12:46;22.30;62.90
63317;DHT22;49822;41.468;13.560;2022-08-03T05:15:14;22.30;63.20
63317;DHT22;49822;41.468;13.560;2022-08-03T05:17:42;22.00;62.80
63317;DHT22;49822;41.468;13.560;2022-08-03T05:20:10;22.00;62.30
63317;DHT22;49822;41.468;13.560;2022-08-03T05:22:37;22.00;61.50
63317;DHT22;49822;41.468;13.560;2022-08-03T05:25:06;22.10;61.90
63317;DHT22;49822;41.468;13.560;2022-08-03T05:27:34;22.10;61.30
63317;DHT22;49822;41.468;13.560;2022-08-03T05:30:02;22.20;61.10
63317;DHT22;49822;41.468;13.560;2022-08-03T05:32:53;22.40;60.50
63317;DHT22;49822;41.468;13.560;2022-08-03T05:35:22;22.70;60.30
63317;DHT22;49822;41.468;13.560;2022-08-03T05:38:11;22.80;58.80
63317;DHT22;49822;41.468;13.560;2022-08-03T05:40:51;23.00;59.00
63317;DHT22;49822;41.468;13.560;2022-08-03T05:43:39;23.20;57.80
63317;DHT22;49822;41.468;13.560;2022-08-03T05:46:06;23.40;58.50
63317;DHT22;49822;41.468;13.560;2022-08-03T05:48:43;23.50;58.30
63317;DHT22;49822;41.468;13.560;2022-08-03T05:51:13;23.60;58.10
63317;DHT22;49822;41.468;13.560;2022-08-03T05:53:42;23.60;58.40
63317;DHT22;49822;41.468;13.560;2022-08-03T05:56:10;23.80;57.90
63317;DHT22;49822;41.468;13.560;2022-08-03T05:58:45;23.80;58.00
63317;DHT22;49822;41.468;13.560;2022-08-03T06:01:17;24.00;57.80
63317;DHT22;49822;41.468;13.560;2022-08-03T06:03:45;24.00;57.60
63317;DHT22;49822;41.468;13.560;2022-08-03T06:06:12;24.20;56.90
63317;DHT22;49822;41.468;13.560;2022-08-03T06:08:40;24.20;56.80
63317;DHT22;49822;41.468;13.560;2022-08-03T06:11:08;24.40;56.90
63317;DHT22;49822;41.468;13.560;2022-08-03T06:13:36;24.40;56.80
63317;DHT22;49822;41.468;13.560;2022-08-03T06:16:03;24.50;57.10
63317;DHT22;49822;41.468;13.560;2022-08-03T06:18:31;24.60;57.50
63317;DHT22;49822;41.468;13.560;2022-08-03T06:20:59;24.60;57.00
63317;DHT22;49822;41.468;13.560;2022-08-03T06:23:42;24.70;56.90
63317;DHT22;49822;41.468;13.560;2022-08-03T06:26:22;24.70;56.90
63317;DHT22;49822;41.468;13.560;2022-08-03T06:28:50;24.80;56.80
63317;DHT22;49822;41.468;13.560;2022-08-03T06:31:30;24.90;57.50
63317;DHT22;49822;41.468;13.560;2022-08-03T06:34:01;25.00;56.70
63317;DHT22;49822;41.468;13.560;2022-08-03T06:36:50;25.00;56.00
63317;DHT22;49822;41.468;13.560;2022-08-03T06:39:19;25.00;55.80
63317;DHT22;49822;41.468;13.560;2022-08-03T06:41:51;25.20;56.00
63317;DHT22;49822;41.468;13.560;2022-08-03T06:44:19;25.20;56.10
63317;DHT22;49822;41.468;13.560;2022-08-03T06:46:46;25.30;56.10
63317;DHT22;49822;41.468;13.560;2022-08-03T06:49:14;25.30;56.00
63317;DHT22;49822;41.468;13.560;2022-08-03T06:51:42;25.40;55.30
63317;DHT22;49822;41.468;13.560;2022-08-03T06:54:29;25.40;55.90
63317;DHT22;49822;41.468;13.560;2022-08-03T06:56:59;25.50;55.50
63317;DHT22;49822;41.468;13.560;2022-08-03T06:59:27;25.60;55.10
63317;DHT22;49822;41.468;13.560;2022-08-03T07:02:14;25.60;55.40
63317;DHT22;49822;41.468;13.560;2022-08-03T07:04:46;25.60;55.30
63317;DHT22;49822;41.468;13.560;2022-08-03T07:07:14;25.60;55.00
63317;DHT22;49822;41.468;13.560;2022-08-03T07:09:41;25.60;54.80
63317;DHT22;49822;41.468;13.560;2022-08-03T07:12:25;25.50;55.00
63317;DHT22;49822;41.468;13.560;2022-08-03T07:14:53;25.50;55.70
63317;DHT22;49822;41.468;13.560;2022-08-03T07:17:28;25.50;56.20
63317;DHT22;49822;41.468;13.560;2022-08-03T07:19:56;25.60;56.10
63317;DHT22;49822;41.468;13.560;2022-08-03T07:22:24;25.70;55.60
63317;DHT22;49822;41.468;13.560;2022-08-03T07:24:51;25.80;55.30
63317;DHT22;49822;41.468;13.560;2022-08-03T07:27:19;26.00;54.90
63317;DHT22;49822;41.468;13.560;2022-08-03T07:29:46;26.00;54.90
63317;DHT22;49822;41.468;13.560;2022-08-03T07:32:14;26.10;55.10
63317;DHT22;49822;41.468;13.560;2022-08-03T07:34:41;26.10;54.70
63317;DHT22;49822;41.468;13.560;2022-08-03T07:37:09;26.10;54.60
63317;DHT22;49822;41.468;13.560;2022-08-03T07:39:37;26.10;54.70
63317;DHT22;49822;41.468;13.560;2022-08-03T07:42:04;26.10;54.60
63317;DHT22;49822;41.468;13.560;2022-08-03T07:44:32;26.10;54.50
63317;DHT22;49822;41.468;13.560;2022-08-03T07:46:59;26.20;54.90
63317;DHT22;49822;41.468;13.560;2022-08-03T07:49:29;26.20;54.00
63317;DHT22;49822;41.468;13.560;2022-08-03T07:51:57;26.10;54.20
63317;DHT22;49822;41.468;13.560;2022-08-03T07:54:43;26.30;54.20
63317;DHT22;49822;41.468;13.560;2022-08-03T07:57:10;26.20;53.90
63317;DHT22;49822;41.468;13.560;2022-08-03T07:59:38;26.00;54.50
63317;DHT22;49822;41.468;13.560;2022-08-03T08:02:26;25.80;55.00
63317;DHT22;49822;41.468;13.560;2022-08-03T08:04:56;25.70;54.40
63317;DHT22;49822;41.468;13.560;2022-08-03T08:07:31;25.80;53.90
63317;DHT22;49822;41.468;13.560;2022-08-03T08:09:59;26.00;53.50
63317;DHT22;49822;41.468;13.560;2022-08-03T08:12:26;26.40;52.50
63317;DHT22;49822;41.468;13.560;2022-08-03T08:14:54;26.60;51.60
63317;DHT22;49822;41.468;13.560;2022-08-03T08:17:22;27.00;50.70
63317;DHT22;49822;41.468;13.560;2022-08-03T08:19:49;27.00;50.00
63317;DHT22;49822;41.468;13.560;2022-08-03T08:22:19;27.20;49.80
63317;DHT22;49822;41.468;13.560;2022-08-03T08:24:57;27.40;49.30
63317;DHT22;49822;41.468;13.560;2022-08-03T08:27:27;27.50;48.30
63317;DHT22;49822;41.468;13.560;2022-08-03T08:30:17;27.50;47.60
63317;DHT22;49822;41.468;13.560;2022-08-03T08:32:48;27.80;46.80
63317;DHT22;49822;41.468;13.560;2022-08-03T08:36:18;28.10;45.70
63317;DHT22;49822;41.468;13.560;2022-08-03T08:42:03;28.50;43.60
63317;DHT22;49822;41.468;13.560;2022-08-03T08:44:31;28.70;43.20
63317;DHT22;49822;41.468;13.560;2022-08-03T08:47:01;29.00;43.50
63317;DHT22;49822;41.468;13.560;2022-08-03T08:49:29;29.30;42.30
63317;DHT22;49822;41.468;13.560;2022-08-03T08:52:00;29.40;41.50
63317;DHT22;49822;41.468;13.560;2022-08-03T08:54:30;29.50;40.40
63317;DHT22;49822;41.468;13.560;2022-08-03T08:57:00;29.60;41.00
63317;DHT22;49822;41.468;13.560;2022-08-03T08:59:32;29.90;40.20
63317;DHT22;49822;41.468;13.560;2022-08-03T09:02:15;30.10;39.80
63317;DHT22;49822;41.468;13.560;2022-08-03T09:04:43;30.30;38.30
63317;DHT22;49822;41.468;13.560;2022-08-03T09:07:11;30.50;37.90
63317;DHT22;49822;41.468;13.560;2022-08-03T09:09:48;30.60;36.70
63317;DHT22;49822;41.468;13.560;2022-08-03T09:12:41;30.60;36.10
63317;DHT22;49822;41.468;13.560;2022-08-03T09:15:20;30.80;37.30
63317;DHT22;49822;41.468;13.560;2022-08-03T09:17:50;31.00;37.20
63317;DHT22;49822;41.468;13.560;2022-08-03T09:20:19;31.00;37.70
63317;DHT22;49822;41.468;13.560;2022-08-03T09:22:58;30.90;37.50
63317;DHT22;49822;41.468;13.560;2022-08-03T09:28:10;30.70;38.10
63317;DHT22;49822;41.468;13.560;2022-08-03T09:30:42;31.30;36.90
63317;DHT22;49822;41.468;13.560;2022-08-03T09:33:12;31.60;36.70
63317;DHT22;49822;41.468;13.560;2022-08-03T09:35:41;31.60;35.40
63317;DHT22;49822;41.468;13.560;2022-08-03T09:38:25;31.50;34.80
63317;DHT22;49822;41.468;13.560;2022-08-03T09:40:55;31.50;35.70
63317;DHT22;49822;41.468;13.560;2022-08-03T09:43:27;31.80;36.30
63317;DHT22;49822;41.468;13.560;2022-08-03T09:49:31;32.40;34.20
63317;DHT22;49822;41.468;13.560;2022-08-03T09:52:14;32.40;33.70
63317;DHT22;49822;41.468;13.560;2022-08-03T09:55:15;32.10;35.00
63317;DHT22;49822;41.468;13.560;2022-08-03T09:58:08;32.00;32.20
63317;DHT22;49822;41.468;13.560;2022-08-03T10:01:05;32.10;33.60
63317;DHT22;49822;41.468;13.560;2022-08-03T10:03:58;32.40;34.30
63317;DHT22;49822;41.468;13.560;2022-08-03T10:06:31;32.70;34.00
63317;DHT22;49822;41.468;13.560;2022-08-03T10:09:06;33.00;32.90
63317;DHT22;49822;41.468;13.560;2022-08-03T10:12:08;33.20;32.70
63317;DHT22;49822;41.468;13.560;2022-08-03T10:14:42;33.40;33.60
63317;DHT22;49822;41.468;13.560;2022-08-03T10:17:12;33.10;32.90
63317;DHT22;49822;41.468;13.560;2022-08-03T10:19:39;33.30;32.80
63317;DHT22;49822;41.468;13.560;2022-08-03T10:22:21;33.50;32.70
63317;DHT22;49822;41.468;13.560;2022-08-03T10:27:22;33.20;32.90
63317;DHT22;49822;41.468;13.560;2022-08-03T10:30:10;33.30;31.80
63317;DHT22;49822;41.468;13.560;2022-08-03T10:36:17;33.80;31.60
63317;DHT22;49822;41.468;13.560;2022-08-03T10:38:50;33.90;31.80
63317;DHT22;49822;41.468;13.560;2022-08-03T10:41:24;34.10;31.20
63317;DHT22;49822;41.468;13.560;2022-08-03T10:44:17;34.20;32.00
63317;DHT22;49822;41.468;13.560;2022-08-03T10:46:46;34.30;31.20
63317;DHT22;49822;41.468;13.560;2022-08-03T10:49:17;34.20;32.10
63317;DHT22;49822;41.468;13.560;2022-08-03T10:52:02;34.40;31.50
63317;DHT22;49822;41.468;13.560;2022-08-03T10:54:44;34.10;31.20
63317;DHT22;49822;41.468;13.560;2022-08-03T10:57:53;34.20;31.30
63317;DHT22;49822;41.468;13.560;2022-08-03T11:00:27;34.20;31.30
63317;DHT22;49822;41.468;13.560;2022-08-03T11:03:10;34.40;31.50
63317;DHT22;49822;41.468;13.560;2022-08-03T11:05:45;34.50;31.10
63317;DHT22;49822;41.468;13.560;2022-08-03T11:08:33;34.70;30.70
63317;DHT22;49822;41.468;13.560;2022-08-03T11:14:16;34.40;30.60
63317;DHT22;49822;41.468;13.560;2022-08-03T11:16:48;34.20;32.30
63317;DHT22;49822;41.468;13.560;2022-08-03T11:19:18;34.60;31.20
63317;DHT22;49822;41.468;13.560;2022-08-03T11:21:55;35.00;30.90
63317;DHT22;49822;41.468;13.560;2022-08-03T11:27:22;35.10;30.50
63317;DHT22;49822;41.468;13.560;2022-08-03T11:35:13;34.60;30.50
63317;DHT22;49822;41.468;13.560;2022-08-03T11:40:32;34.40;30.70
63317;DHT22;49822;41.468;13.560;2022-08-03T11:42:59;34.70;29.90
63317;DHT22;49822;41.468;13.560;2022-08-03T11:45:27;35.30;30.00
63317;DHT22;49822;41.468;13.560;2022-08-03T11:47:54;35.30;28.90
63317;DHT22;49822;41.468;13.560;2022-08-03T11:50:22;35.60;28.40
63317;DHT22;49822;41.468;13.560;2022-08-03T11:52:50;35.80;28.40
63317;DHT22;49822;41.468;13.560;2022-08-03T11:55:19;35.90;27.60
63317;DHT22;49822;41.468;13.560;2022-08-03T11:57:48;35.80;28.10
63317;DHT22;49822;41.468;13.560;2022-08-03T12:00:36;35.40;28.00
63317;DHT22;49822;41.468;13.560;2022-08-03T12:03:10;35.00;28.50
63317;DHT22;49822;41.468;13.560;2022-08-03T12:08:30;34.40;31.40
63317;DHT22;49822;41.468;13.560;2022-08-03T12:11:03;34.40;31.70
63317;DHT22;49822;41.468;13.560;2022-08-03T12:13:43;34.20;32.10
63317;DHT22;49822;41.468;13.560;2022-08-03T12:16:31;34.00;32.10
63317;DHT22;49822;41.468;13.560;2022-08-03T12:19:02;34.00;32.20
63317;DHT22;49822;41.468;13.560;2022-08-03T12:21:31;34.20;31.80
63317;DHT22;49822;41.468;13.560;2022-08-03T12:24:03;33.90;32.50
63317;DHT22;49822;41.468;13.560;2022-08-03T12:26:47;33.80;32.70
63317;DHT22;49822;41.468;13.560;2022-08-03T12:29:26;33.60;32.80
63317;DHT22;49822;41.468;13.560;2022-08-03T12:31:53;33.80;32.20
63317;DHT22;49822;41.468;13.560;2022-08-03T12:34:46;33.90;31.90
63317;DHT22;49822;41.468;13.560;2022-08-03T12:37:21;33.50;32.90
63317;DHT22;49822;41.468;13.560;2022-08-03T12:39:59;33.60;32.60
63317;DHT22;49822;41.468;13.560;2022-08-03T12:42:37;33.50;32.70
63317;DHT22;49822;41.468;13.560;2022-08-03T12:45:24;33.00;33.20
63317;DHT22;49822;41.468;13.560;2022-08-03T12:47:57;33.00;33.40
63317;DHT22;49822;41.468;13.560;2022-08-03T12:50:34;32.90;33.90
63317;DHT22;49822;41.468;13.560;2022-08-03T12:53:06;32.80;33.70
63317;DHT22;49822;41.468;13.560;2022-08-03T12:55:38;33.00;33.40
63317;DHT22;49822;41.468;13.560;2022-08-03T12:58:43;33.10;33.30
63317;DHT22;49822;41.468;13.560;2022-08-03T13:01:11;33.50;31.90
63317;DHT22;49822;41.468;13.560;2022-08-03T13:03:45;33.60;32.10
63317;DHT22;49822;41.468;13.560;2022-08-03T13:06:18;33.50;32.20
63317;DHT22;49822;41.468;13.560;2022-08-03T13:08:46;33.30;32.30
63317;DHT22;49822;41.468;13.560;2022-08-03T13:11:24;33.40;31.80
63317;DHT22;49822;41.468;13.560;2022-08-03T13:14:12;33.80;31.60
63317;DHT22;49822;41.468;13.560;2022-08-03T13:16:47;33.90;31.30
63317;DHT22;49822;41.468;13.560;2022-08-03T13:19:15;33.30;31.60
63317;DHT22;49822;41.468;13.560;2022-08-03T13:21:43;33.40;31.50
63317;DHT22;49822;41.468;13.560;2022-08-03T13:24:31;33.60;31.30
63317;DHT22;49822;41.468;13.560;2022-08-03T13:26:59;33.30;32.00
63317;DHT22;49822;41.468;13.560;2022-08-03T13:29:48;33.20;32.30
63317;DHT22;49822;41.468;13.560;2022-08-03T13:32:16;33.00;32.10
63317;DHT22;49822;41.468;13.560;2022-08-03T13:34:43;33.00;32.10
63317;DHT22;49822;41.468;13.560;2022-08-03T13:37:11;33.10;32.50
63317;DHT22;49822;41.468;13.560;2022-08-03T13:39:40;33.20;32.20
63317;DHT22;49822;41.468;13.560;2022-08-03T13:42:27;33.10;32.40
63317;DHT22;49822;41.468;13.560;2022-08-03T13:44:55;33.20;32.40
63317;DHT22;49822;41.468;13.560;2022-08-03T13:47:22;32.80;32.60
63317;DHT22;49822;41.468;13.560;2022-08-03T13:49:49;32.70;32.90
63317;DHT22;49822;41.468;13.560;2022-08-03T13:52:37;32.60;33.30
63317;DHT22;49822;41.468;13.560;2022-08-03T13:55:07;32.90;33.10
63317;DHT22;49822;41.468;13.560;2022-08-03T13:57:36;32.80;33.30
63317;DHT22;49822;41.468;13.560;2022-08-03T14:00:26;33.00;33.40
63317;DHT22;49822;41.468;13.560;2022-08-03T14:02:56;33.30;33.30
63317;DHT22;49822;41.468;13.560;2022-08-03T14:05:34;33.20;33.00
63317;DHT22;49822;41.468;13.560;2022-08-03T14:08:03;32.80;33.30
63317;DHT22;49822;41.468;13.560;2022-08-03T14:10:37;32.70;33.10
63317;DHT22;49822;41.468;13.560;2022-08-03T14:13:05;32.60;33.40
63317;DHT22;49822;41.468;13.560;2022-08-03T14:15:33;32.80;33.40
63317;DHT22;49822;41.468;13.560;2022-08-03T14:18:05;33.10;33.20
63317;DHT22;49822;41.468;13.560;2022-08-03T14:20:42;33.20;32.80
63317;DHT22;49822;41.468;13.560;2022-08-03T14:23:16;33.10;33.10
63317;DHT22;49822;41.468;13.560;2022-08-03T14:25:44;33.10;32.60
63317;DHT22;49822;41.468;13.560;2022-08-03T14:28:22;33.30;32.50
63317;DHT22;49822;41.468;13.560;2022-08-03T14:30:54;33.20;32.30
63317;DHT22;49822;41.468;13.560;2022-08-03T14:33:22;33.00;32.90
63317;DHT22;49822;41.468;13.560;2022-08-03T14:35:50;32.60;33.00
63317;DHT22;49822;41.468;13.560;2022-08-03T14:38:19;32.50;33.30
63317;DHT22;49822;41.468;13.560;2022-08-03T14:40:50;32.20;33.70
63317;DHT22;49822;41.468;13.560;2022-08-03T14:43:38;32.20;33.70
63317;DHT22;49822;41.468;13.560;2022-08-03T14:46:29;32.20;34.00
63317;DHT22;49822;41.468;13.560;2022-08-03T14:48:56;32.00;34.00
63317;DHT22;49822;41.468;13.560;2022-08-03T14:51:44;31.90;34.10
63317;DHT22;49822;41.468;13.560;2022-08-03T14:54:20;31.80;33.80
63317;DHT22;49822;41.468;13.560;2022-08-03T14:56:48;31.60;34.10
63317;DHT22;49822;41.468;13.560;2022-08-03T14:59:15;31.60;34.30
63317;DHT22;49822;41.468;13.560;2022-08-03T15:01:43;31.80;35.00
63317;DHT22;49822;41.468;13.560;2022-08-03T15:04:30;31.70;37.30
63317;DHT22;49822;41.468;13.560;2022-08-03T15:06:58;31.60;37.50
63317;DHT22;49822;41.468;13.560;2022-08-03T15:09:26;31.60;37.70
63317;DHT22;49822;41.468;13.560;2022-08-03T15:11:53;31.50;37.90
63317;DHT22;49822;41.468;13.560;2022-08-03T15:14:21;31.50;38.50
63317;DHT22;49822;41.468;13.560;2022-08-03T15:16:59;31.50;38.80
63317;DHT22;49822;41.468;13.560;2022-08-03T15:19:27;31.50;38.70
63317;DHT22;49822;41.468;13.560;2022-08-03T15:22:14;31.30;36.40
63317;DHT22;49822;41.468;13.560;2022-08-03T15:24:46;31.20;37.40
63317;DHT22;49822;41.468;13.560;2022-08-03T15:27:14;31.10;36.90
63317;DHT22;49822;41.468;13.560;2022-08-03T15:29:41;31.10;36.80
63317;DHT22;49822;41.468;13.560;2022-08-03T15:32:29;31.00;37.50
63317;DHT22;49822;41.468;13.560;2022-08-03T15:34:56;31.00;37.30
63317;DHT22;49822;41.468;13.560;2022-08-03T15:37:26;31.00;37.20
63317;DHT22;49822;41.468;13.560;2022-08-03T15:39:55;31.00;37.10
63317;DHT22;49822;41.468;13.560;2022-08-03T15:42:30;31.10;37.00
63317;DHT22;49822;41.468;13.560;2022-08-03T15:44:59;31.30;37.30
63317;DHT22;49822;41.468;13.560;2022-08-03T15:47:26;31.40;39.20
63317;DHT22;49822;41.468;13.560;2022-08-03T15:49:54;31.30;40.40
63317;DHT22;49822;41.468;13.560;2022-08-03T15:52:21;31.10;41.20
63317;DHT22;49822;41.468;13.560;2022-08-03T15:54:49;30.90;41.80
63317;DHT22;49822;41.468;13.560;2022-08-03T15:57:16;30.90;41.60
63317;DHT22;49822;41.468;13.560;2022-08-03T15:59:44;30.80;41.70
63317;DHT22;49822;41.468;13.560;2022-08-03T16:02:12;30.90;41.70
63317;DHT22;49822;41.468;13.560;2022-08-03T16:04:39;30.90;41.30
63317;DHT22;49822;41.468;13.560;2022-08-03T16:07:07;30.90;41.10
63317;DHT22;49822;41.468;13.560;2022-08-03T16:09:38;31.00;40.70
63317;DHT22;49822;41.468;13.560;2022-08-03T16:12:10;31.00;41.10
63317;DHT22;49822;41.468;13.560;2022-08-03T16:14:43;31.00;39.00
63317;DHT22;49822;41.468;13.560;2022-08-03T16:17:20;31.10;39.80
63317;DHT22;49822;41.468;13.560;2022-08-03T16:19:50;31.20;40.00
63317;DHT22;49822;41.468;13.560;2022-08-03T16:22:24;31.30;40.50
63317;DHT22;49822;41.468;13.560;2022-08-03T16:24:53;31.20;41.30
63317;DHT22;49822;41.468;13.560;2022-08-03T16:27:22;31.10;41.40
63317;DHT22;49822;41.468;13.560;2022-08-03T16:30:11;30.80;41.70
63317;DHT22;49822;41.468;13.560;2022-08-03T16:32:39;30.80;41.70